Roselawn, Ohio
Current Conditions -  °F | °C
As of 10:53 PM on Wednesday 26 Nov 2014 (Local Time) from KLUK Reporting Station
Broken Clouds Broken Clouds  
Wind Chill: 26°   Ceiling: 11000
Heat Index: 31°   Visibility: 9mi
Dew Point: 25°   Wind: 5mph
Humidity: 79%   Direction: 360°N
Pressure: 30.09"   Gusts: NA
Location:  39.1936°N, 84.4486°W
Report Text: KLUK 270353Z 36004KT 9SM BKN110 M01/M04 A3009 RMK AO2 SLP193 T10061039
Loading
Personal Weather Stations






























Interactive Weather Map New forecast layout! Learn more

10-Day Weather Forecast

Advertisements
Track Severe Weather on mobile